createdAt,value
2023-03-07T00:00:56.046Z,31.50
2023-03-07T00:01:56.085Z,31.51
2023-03-07T00:02:56.146Z,31.46
2023-03-07T00:03:56.181Z,31.49
2023-03-07T00:04:56.215Z,31.48
2023-03-07T00:39:57.625Z,31.34
2023-03-07T02:13:01.320Z,30.94
2023-03-07T02:14:01.365Z,30.93
2023-03-07T02:15:01.413Z,30.92
2023-03-07T02:16:01.498Z,30.94
2023-03-07T02:17:01.496Z,30.93
2023-03-07T02:18:01.535Z,30.92
2023-03-07T02:19:01.576Z,30.94
2023-03-07T02:20:01.616Z,30.91
2023-03-07T02:21:01.658Z,30.92
2023-03-07T02:22:01.710Z,30.91
2023-03-07T02:23:01.746Z,30.89
2023-03-07T02:24:01.797Z,30.91
2023-03-07T02:25:01.836Z,30.89
2023-03-07T02:26:01.871Z,30.87
2023-03-07T02:27:01.918Z,30.89
2023-03-07T02:28:01.960Z,30.89
2023-03-07T02:29:02.008Z,30.89
2023-03-07T02:30:02.058Z,30.90
2023-03-07T02:31:02.128Z,30.88
2023-03-07T02:32:02.194Z,30.90
2023-03-07T02:33:02.168Z,30.89
2023-03-07T02:34:02.210Z,30.87
2023-03-07T02:35:02.243Z,30.85
2023-03-07T02:36:02.321Z,30.87
2023-03-07T02:37:02.315Z,30.85
2023-03-07T02:38:02.361Z,30.85
2023-03-07T02:40:02.434Z,30.84
2023-03-07T02:41:02.467Z,30.83
2023-03-07T02:42:02.512Z,30.83
2023-03-07T02:43:02.559Z,30.83
2023-03-07T02:44:02.616Z,30.83
2023-03-07T07:21:11.320Z,35.97
2023-03-07T07:22:11.383Z,36.09
2023-03-07T07:23:11.443Z,36.31
2023-03-07T07:24:11.503Z,36.50
2023-03-07T07:25:11.563Z,36.37
2023-03-07T07:27:12.670Z,32.29
2023-03-07T07:29:11.705Z,30.03
2023-03-07T07:30:11.723Z,30.84
2023-03-07T07:31:11.755Z,31.99
2023-03-07T07:32:11.963Z,32.17
2023-03-07T07:33:12.902Z,32.53
2023-03-07T07:34:11.830Z,32.67
2023-03-07T07:35:11.850Z,32.71
2023-03-07T07:36:11.875Z,32.76
2023-03-07T07:37:11.906Z,32.78
2023-03-07T07:38:11.994Z,32.77
2023-03-07T07:39:12.042Z,32.81
2023-03-07T07:40:12.085Z,32.69
2023-03-07T07:41:12.119Z,32.66
2023-03-07T07:42:12.159Z,32.64
2023-03-07T07:43:12.182Z,32.54
2023-03-07T07:44:12.191Z,32.70
2023-03-07T07:45:12.213Z,32.69
2023-03-07T11:08:21.374Z,28.75
2023-03-07T11:09:21.425Z,28.73
2023-03-07T11:11:21.583Z,28.74
2023-03-07T11:12:21.591Z,28.75
2023-03-07T11:13:21.623Z,28.73
2023-03-07T11:14:21.701Z,28.75
2023-03-07T11:15:21.756Z,28.77
2023-03-07T11:16:21.895Z,28.75
2023-03-07T11:17:21.911Z,28.74
2023-03-07T11:18:21.938Z,28.72
2023-03-07T11:19:22.002Z,28.76
2023-03-07T11:20:22.060Z,28.73
2023-03-07T11:21:22.119Z,28.72
2023-03-07T11:22:22.191Z,28.70
2023-03-07T11:23:22.234Z,28.69
2023-03-07T11:24:22.329Z,28.69
2023-03-07T11:25:22.332Z,28.71
2023-03-07T11:26:22.385Z,28.71
2023-03-07T11:27:22.393Z,28.70
2023-03-07T11:28:22.429Z,28.71
2023-03-07T11:29:22.448Z,28.69
2023-03-07T11:30:22.483Z,28.72
2023-03-07T11:31:22.539Z,28.71
2023-03-07T11:32:22.606Z,28.71
2023-03-07T11:33:22.633Z,28.72
2023-03-07T11:34:22.681Z,28.72
2023-03-07T11:35:22.724Z,28.70
2023-03-07T11:36:22.745Z,28.69
2023-03-07T11:37:23.679Z,28.71
2023-03-07T11:38:22.787Z,28.71
2023-03-07T11:39:22.805Z,28.69
2023-03-07T11:40:22.822Z,28.70
2023-03-07T11:41:22.867Z,28.66
2023-03-07T11:42:22.926Z,28.68
2023-03-07T11:43:22.925Z,28.68
2023-03-07T11:44:22.947Z,28.67
2023-03-07T11:45:22.972Z,28.67
2023-03-07T11:46:23.070Z,28.67
2023-03-07T11:47:23.077Z,28.67
2023-03-07T11:48:23.136Z,28.66
2023-03-07T11:49:23.196Z,28.66
2023-03-07T11:50:23.231Z,28.65
2023-03-07T11:51:23.285Z,28.66
2023-03-07T11:52:23.306Z,28.65
2023-03-07T11:53:23.356Z,28.67
2023-03-07T11:54:23.358Z,28.64
2023-03-07T11:55:23.378Z,28.64
2023-03-07T11:56:23.424Z,28.64
2023-03-07T11:57:23.423Z,28.66
2023-03-07T11:58:23.426Z,28.65
2023-03-07T11:59:23.452Z,28.66
2023-03-07T12:00:23.472Z,28.64
2023-03-07T12:01:23.469Z,28.67
2023-03-07T12:02:23.478Z,28.67
2023-03-07T12:03:23.496Z,28.72
2023-03-07T12:04:23.492Z,28.72
2023-03-07T12:05:23.530Z,28.75
2023-03-07T12:06:23.494Z,28.76
2023-03-07T12:07:23.529Z,28.78
2023-03-07T12:08:23.522Z,28.79
2023-03-07T12:09:23.537Z,28.81
2023-03-07T12:10:23.541Z,28.83
2023-03-07T12:11:23.550Z,28.84
2023-03-07T12:12:23.550Z,28.83
2023-03-07T12:13:23.571Z,28.86
2023-03-07T12:14:23.602Z,28.85
2023-03-07T12:15:23.574Z,28.87
2023-03-07T12:16:23.618Z,28.87
2023-03-07T12:17:23.579Z,28.85
2023-03-07T12:18:23.583Z,28.85
2023-03-07T12:19:23.589Z,28.86
2023-03-07T12:20:23.596Z,28.89
2023-03-07T12:21:23.626Z,28.89
2023-03-07T12:22:23.639Z,28.89
2023-03-07T12:23:23.653Z,28.92
2023-03-07T12:24:24.669Z,28.93
2023-03-07T12:25:23.660Z,28.94
2023-03-07T12:26:23.657Z,28.92
2023-03-07T12:27:25.614Z,28.94
2023-03-07T12:28:23.661Z,28.94
2023-03-07T12:29:23.669Z,28.96
2023-03-07T12:30:23.666Z,28.95
2023-03-07T12:31:23.680Z,28.96
2023-03-07T12:32:23.798Z,28.96
2023-03-07T12:33:26.292Z,28.96
2023-03-07T12:34:23.656Z,28.97
2023-03-07T12:35:23.734Z,28.98
2023-03-07T12:36:23.695Z,28.98
2023-03-07T12:37:23.674Z,29.01
2023-03-07T12:38:23.791Z,29.02
2023-03-07T12:39:23.714Z,29.02
2023-03-07T12:40:23.711Z,29.03
2023-03-07T12:41:23.708Z,29.07
2023-03-07T12:42:23.693Z,29.06
2023-03-07T12:43:23.711Z,29.09
2023-03-07T12:44:23.724Z,29.09
2023-03-07T12:45:25.432Z,29.10
2023-03-07T12:46:23.774Z,29.11
2023-03-07T12:47:23.729Z,29.13
2023-03-07T12:48:23.737Z,29.14
2023-03-07T12:49:23.746Z,29.15
2023-03-07T12:50:23.755Z,29.16
2023-03-07T12:51:26.296Z,29.18
2023-03-07T12:52:23.766Z,29.17
2023-03-07T12:53:23.764Z,29.20
2023-03-07T13:15:23.931Z,31.05
2023-03-07T13:16:23.969Z,31.21
2023-03-07T13:17:23.919Z,31.27
2023-03-07T13:18:23.927Z,31.44
2023-03-07T13:19:26.370Z,31.52
2023-03-07T13:20:23.922Z,31.59
2023-03-07T13:21:23.912Z,31.75
2023-03-07T13:22:23.910Z,31.94
2023-03-07T13:23:23.995Z,32.17
2023-03-07T13:24:23.911Z,32.21
2023-03-07T13:25:26.626Z,32.40
2023-03-07T13:26:23.922Z,32.69
2023-03-07T13:27:23.913Z,32.75
2023-03-07T13:28:23.918Z,32.85
2023-03-07T13:29:23.912Z,33.02
2023-03-07T13:30:23.911Z,33.10
2023-03-07T13:31:26.202Z,33.29
2023-03-07T13:32:24.039Z,33.38
2023-03-07T13:33:24.062Z,33.52
2023-03-07T13:34:24.107Z,33.67
2023-03-07T13:35:24.218Z,33.77
2023-03-07T13:36:24.205Z,33.85
2023-03-07T13:37:25.933Z,34.03
2023-03-07T13:38:24.273Z,34.03
2023-03-07T13:39:24.323Z,34.23
2023-03-07T13:40:24.379Z,34.30
2023-03-07T13:41:24.413Z,34.39
2023-03-07T15:52:31.339Z,35.10
2023-03-07T15:53:31.415Z,35.09
2023-03-07T15:54:31.473Z,35.08
2023-03-07T15:55:31.540Z,35.08
2023-03-07T15:56:31.618Z,35.11
2023-03-07T15:57:31.702Z,35.14
2023-03-07T15:58:31.760Z,35.18
2023-03-07T15:59:31.854Z,35.19
2023-03-07T16:00:31.906Z,35.27
2023-03-07T16:01:32.009Z,35.23
2023-03-07T16:02:32.260Z,35.25
2023-03-07T16:03:32.195Z,35.22
2023-03-07T16:04:32.160Z,35.16
2023-03-07T16:05:32.223Z,35.26
2023-03-07T16:06:32.428Z,35.28
2023-03-07T16:07:32.347Z,35.30
2023-03-07T16:08:32.415Z,35.36
2023-03-07T16:09:32.474Z,35.37
2023-03-07T16:10:32.534Z,35.36
2023-03-07T16:11:32.597Z,35.29
2023-03-07T16:12:32.681Z,35.28
2023-03-07T16:13:32.756Z,35.24
2023-03-07T16:14:32.774Z,35.24
2023-03-07T16:15:32.793Z,35.31
2023-03-07T16:16:32.908Z,35.29
2023-03-07T16:17:32.918Z,35.31
2023-03-07T16:18:32.968Z,35.30
2023-03-07T16:19:33.028Z,35.33
2023-03-07T16:20:33.087Z,35.33
2023-03-07T16:21:33.106Z,35.34
2023-03-07T16:22:33.161Z,35.33
2023-03-07T16:23:33.210Z,35.30
2023-03-07T16:24:33.256Z,35.34
2023-03-07T16:25:33.308Z,35.37
2023-03-07T16:26:33.313Z,35.39
2023-03-07T16:27:33.355Z,35.40
2023-03-07T16:28:33.419Z,35.38
2023-03-07T16:29:33.447Z,35.35
2023-03-07T16:30:33.495Z,35.35
2023-03-07T16:31:33.539Z,35.38
2023-03-07T16:32:33.523Z,35.38
2023-03-07T16:33:33.500Z,35.41
2023-03-07T16:34:33.506Z,35.31
2023-03-07T16:35:33.549Z,35.29
2023-03-07T16:36:33.579Z,35.31
2023-03-07T16:37:33.629Z,35.39
2023-03-07T16:38:33.763Z,35.35
2023-03-07T16:39:33.729Z,35.43
2023-03-07T16:40:33.807Z,35.43
2023-03-07T16:41:33.879Z,35.35
2023-03-07T16:42:33.893Z,35.39
2023-03-07T16:43:33.928Z,35.52
2023-03-07T16:44:33.983Z,35.46
2023-03-07T16:45:34.087Z,35.55
2023-03-07T16:46:34.063Z,35.51
2023-03-07T16:47:34.066Z,35.54
2023-03-07T16:48:34.101Z,35.58
2023-03-07T16:49:34.140Z,35.62
2023-03-07T16:50:34.184Z,35.57
2023-03-07T16:51:34.220Z,35.58
2023-03-07T16:52:34.252Z,35.61
2023-03-07T16:53:34.295Z,35.66
2023-03-07T16:54:34.344Z,35.61
2023-03-07T16:55:34.352Z,35.65
2023-03-07T16:56:34.327Z,35.62
2023-03-07T16:57:34.361Z,35.67
2023-03-07T16:58:34.417Z,35.68
2023-03-07T16:59:34.467Z,35.69
2023-03-07T17:00:34.506Z,35.72
2023-03-07T17:01:34.572Z,35.71
2023-03-07T17:02:34.511Z,35.92
2023-03-07T17:03:34.487Z,35.99
2023-03-07T17:04:34.487Z,35.96
2023-03-07T17:05:34.506Z,36.00
2023-03-07T17:06:39.492Z,36.05
2023-03-07T17:07:35.517Z,36.06
2023-03-07T17:08:34.526Z,36.06
2023-03-07T17:09:34.541Z,36.04
2023-03-07T17:10:34.559Z,36.01
2023-03-07T17:11:34.565Z,36.00
2023-03-07T17:12:34.572Z,35.99
2023-03-07T17:13:34.583Z,36.03
2023-03-07T17:14:34.586Z,35.99
2023-03-07T17:15:34.617Z,36.06
2023-03-07T17:16:34.601Z,36.05
2023-03-07T17:17:34.611Z,35.99
2023-03-07T17:18:34.622Z,35.99
2023-03-07T17:19:34.653Z,36.02
2023-03-07T17:20:34.649Z,36.01
2023-03-07T17:21:34.645Z,35.99
2023-03-07T17:22:34.656Z,36.00
2023-03-07T17:23:34.662Z,36.02
2023-03-07T17:24:34.677Z,36.01
2023-03-07T17:25:34.673Z,36.02
2023-03-07T17:26:34.723Z,36.01
2023-03-07T17:27:34.676Z,35.98
2023-03-07T17:28:34.690Z,35.97
2023-03-07T17:29:34.694Z,36.01
2023-03-07T17:30:34.697Z,36.02
2023-03-07T17:31:35.727Z,36.05
2023-03-07T17:32:34.766Z,36.01
2023-03-07T17:33:34.704Z,36.01
2023-03-07T17:34:34.739Z,36.02
2023-03-07T17:35:34.728Z,36.01
2023-03-07T17:36:34.725Z,36.03
2023-03-07T17:37:34.729Z,36.03
2023-03-07T17:38:34.749Z,36.01
2023-03-07T17:39:34.772Z,36.00
2023-03-07T17:40:34.766Z,36.01
2023-03-07T17:41:34.776Z,36.03
2023-03-07T17:42:34.791Z,36.03
2023-03-07T17:43:34.809Z,35.99
2023-03-07T17:44:34.854Z,36.06
2023-03-07T17:45:34.824Z,36.03
2023-03-07T17:46:34.912Z,36.09
2023-03-07T17:47:34.851Z,36.09
2023-03-07T17:48:34.858Z,36.04
2023-03-07T17:49:34.878Z,36.07
2023-03-07T17:50:34.881Z,36.03
2023-03-07T17:51:34.886Z,36.07
2023-03-07T17:52:34.923Z,36.09
2023-03-07T17:53:34.911Z,36.09
2023-03-07T17:54:34.925Z,36.06
2023-03-07T17:55:34.933Z,36.09
2023-03-07T17:56:34.940Z,36.10
2023-03-07T17:57:34.946Z,36.09
2023-03-07T17:58:34.962Z,36.15
2023-03-07T17:59:34.996Z,36.11
2023-03-07T18:00:34.984Z,36.10
2023-03-07T18:01:35.030Z,36.08
2023-03-07T18:02:35.068Z,36.12
2023-03-07T18:03:35.035Z,36.11
2023-03-07T18:04:35.047Z,36.09
2023-03-07T18:05:35.062Z,36.13
2023-03-07T18:06:35.087Z,36.15
2023-03-07T18:07:35.071Z,36.13
2023-03-07T18:08:35.103Z,36.17
2023-03-07T18:09:35.107Z,36.17
2023-03-07T18:10:35.108Z,36.14
2023-03-07T18:11:35.128Z,36.16
2023-03-07T18:12:35.140Z,36.18
2023-03-07T18:13:35.155Z,36.18
2023-03-07T18:14:35.177Z,36.14
2023-03-07T18:15:35.193Z,36.16
2023-03-07T18:16:35.239Z,36.16
2023-03-07T18:17:46.922Z,36.18
2023-03-07T18:19:35.295Z,36.20
2023-03-07T18:20:35.260Z,36.20
2023-03-07T18:21:35.265Z,36.18
2023-03-07T18:22:35.276Z,36.20
2023-03-07T18:23:35.295Z,36.17
2023-03-07T18:24:35.306Z,36.17
2023-03-07T18:25:35.328Z,36.15
2023-03-07T18:26:35.332Z,36.13
2023-03-07T18:27:35.351Z,36.11
2023-03-07T18:28:35.378Z,36.15
2023-03-07T18:29:35.397Z,36.14
2023-03-07T18:30:35.396Z,36.15
2023-03-07T18:31:35.463Z,36.09
2023-03-07T18:32:35.515Z,36.12
2023-03-07T18:33:35.450Z,36.16
2023-03-07T18:34:35.472Z,36.13
2023-03-07T18:35:35.507Z,36.15
2023-03-07T18:36:35.487Z,36.15
2023-03-07T18:37:35.514Z,36.20
2023-03-07T18:38:35.517Z,36.15
2023-03-07T18:39:35.538Z,36.16
2023-03-07T18:40:35.557Z,36.17
2023-03-07T18:41:35.567Z,36.16
2023-03-07T18:42:35.604Z,36.15
2023-03-07T18:43:35.602Z,36.19
2023-03-07T18:44:35.616Z,36.16
2023-03-07T18:45:35.644Z,36.17
2023-03-07T18:46:35.711Z,36.16
2023-03-07T18:47:35.649Z,36.18
2023-03-07T18:48:35.666Z,36.17
2023-03-07T18:49:35.661Z,36.18
2023-03-07T18:50:35.686Z,36.15
2023-03-07T18:51:35.683Z,36.15
2023-03-07T18:52:35.698Z,36.16
2023-03-07T18:53:35.713Z,36.18
2023-03-07T18:54:35.715Z,36.16
2023-03-07T18:55:35.719Z,36.20
2023-03-07T18:56:35.734Z,36.16
2023-03-07T18:57:35.737Z,36.16
2023-03-07T18:58:35.762Z,36.20
2023-03-07T18:59:35.750Z,36.18
2023-03-07T19:00:35.796Z,36.19
2023-03-07T19:01:35.761Z,36.18
2023-03-07T19:02:35.762Z,36.20
2023-03-07T19:03:35.776Z,36.20
2023-03-07T19:04:35.796Z,36.19
2023-03-07T19:05:35.786Z,36.16
2023-03-07T19:06:35.821Z,36.21
2023-03-07T19:07:35.829Z,36.20
2023-03-07T19:08:35.851Z,36.17
2023-03-07T19:09:35.878Z,36.21
2023-03-07T19:10:35.903Z,36.18
2023-03-07T19:11:35.934Z,36.20
2023-03-07T19:12:35.963Z,36.18
2023-03-07T19:13:35.971Z,36.18
2023-03-07T19:14:35.993Z,36.22
2023-03-07T19:15:36.018Z,36.22
2023-03-07T19:16:36.108Z,36.23
2023-03-07T19:17:36.066Z,36.20
2023-03-07T19:18:36.091Z,36.20
2023-03-07T19:19:36.122Z,36.21
2023-03-07T19:20:36.134Z,36.23
2023-03-07T19:21:36.149Z,36.22
2023-03-07T19:22:36.201Z,36.25
2023-03-07T19:23:36.212Z,36.25
2023-03-07T19:24:36.234Z,36.25
2023-03-07T22:12:41.320Z,36.35
2023-03-07T22:13:41.354Z,36.37
2023-03-07T22:14:41.425Z,36.30
2023-03-07T22:15:41.408Z,36.31
2023-03-07T22:16:41.481Z,36.38
2023-03-07T22:17:41.490Z,36.31
2023-03-07T22:18:41.528Z,36.42
2023-03-07T22:19:41.553Z,36.38
2023-03-07T22:20:41.583Z,36.35
2023-03-07T22:21:41.621Z,36.36
2023-03-07T22:22:41.672Z,36.39
2023-03-07T22:23:41.717Z,36.44
2023-03-07T22:24:41.722Z,36.38
2023-03-07T22:25:41.762Z,36.39
2023-03-07T22:26:41.805Z,36.35
2023-03-07T22:27:41.833Z,36.36
2023-03-07T22:28:41.863Z,36.37
2023-03-07T22:29:41.898Z,36.34
2023-03-07T22:30:41.934Z,36.36
2023-03-07T22:31:42.009Z,36.38
2023-03-07T22:32:42.015Z,36.36
2023-03-07T22:33:42.043Z,36.43
2023-03-07T22:34:42.074Z,36.36
2023-03-07T22:35:42.150Z,36.39
2023-03-07T22:36:42.125Z,36.39
2023-03-07T22:37:42.163Z,36.32
2023-03-07T22:38:42.209Z,36.35
2023-03-07T22:39:42.235Z,36.32
2023-03-07T22:40:42.270Z,36.39
2023-03-07T22:41:42.306Z,36.38
2023-03-07T22:42:42.351Z,36.39
2023-03-07T22:43:42.408Z,36.36
2023-03-07T22:44:42.420Z,36.31
2023-03-07T22:45:42.457Z,36.33
2023-03-07T22:46:42.494Z,36.32
2023-03-07T22:47:42.543Z,36.34
2023-03-07T22:48:42.576Z,36.37
2023-03-07T22:49:42.603Z,36.35
2023-03-07T22:50:42.634Z,36.35
2023-03-07T22:51:42.668Z,36.32
2023-03-07T22:52:42.705Z,36.37
2023-03-07T22:53:42.762Z,36.39
2023-03-07T22:54:42.791Z,36.37
2023-03-07T22:55:42.842Z,36.33
2023-03-07T22:56:42.861Z,36.37
2023-03-07T22:57:42.894Z,36.36
2023-03-07T22:58:42.936Z,36.33
2023-03-07T22:59:42.964Z,36.31
2023-03-07T23:00:43.010Z,36.33
2023-03-07T23:01:43.031Z,36.29
2023-03-07T23:02:43.088Z,36.34
2023-03-07T23:03:43.097Z,36.33
2023-03-07T23:04:43.188Z,36.39
2023-03-07T23:05:43.160Z,36.38
2023-03-07T23:06:43.199Z,36.39
2023-03-07T23:07:43.246Z,36.28
2023-03-07T23:08:43.272Z,36.40
2023-03-07T23:09:43.298Z,36.36
2023-03-07T23:10:43.343Z,36.33
2023-03-07T23:11:43.377Z,36.32
2023-03-07T23:12:43.413Z,36.35
2023-03-07T23:13:43.442Z,36.33
2023-03-07T23:14:43.475Z,36.30
2023-03-07T23:15:43.549Z,36.35
2023-03-07T23:16:43.545Z,36.37
2023-03-07T23:17:43.583Z,36.32
2023-03-07T23:18:43.620Z,36.33
2023-03-07T23:19:43.646Z,36.35
2023-03-07T23:20:43.692Z,36.36
2023-03-07T23:21:43.720Z,36.34
2023-03-07T23:22:43.758Z,36.31
2023-03-07T23:23:43.790Z,36.37
2023-03-07T23:24:43.822Z,36.33
2023-03-07T23:25:43.860Z,36.32
2023-03-07T23:26:43.898Z,36.31
2023-03-07T23:27:43.933Z,36.42
2023-03-07T23:28:43.975Z,36.39
2023-03-07T23:29:44.008Z,36.34
2023-03-07T23:30:44.077Z,36.39
2023-03-07T23:31:44.091Z,36.39
2023-03-07T23:32:44.131Z,36.36
2023-03-07T23:33:44.147Z,36.37
2023-03-07T23:34:44.186Z,36.36
2023-03-07T23:35:44.234Z,36.44
2023-03-07T23:36:44.262Z,36.36
2023-03-07T23:37:44.297Z,36.33
2023-03-07T23:38:44.345Z,36.38
2023-03-07T23:39:44.372Z,36.35
2023-03-07T23:40:44.408Z,36.38
2023-03-07T23:41:44.459Z,36.44
2023-03-07T23:42:44.477Z,36.47
2023-03-07T23:43:44.538Z,36.46
2023-03-07T23:44:44.562Z,36.43
2023-03-07T23:45:44.577Z,36.45
2023-03-07T23:46:44.616Z,36.44
2023-03-07T23:48:44.684Z,36.33
2023-03-07T23:49:44.716Z,36.35
2023-03-07T23:51:44.863Z,36.42
